createdAt,value
2018-01-25T00:00:10.332Z,85.56
2018-01-25T00:01:10.223Z,85.95
2018-01-25T00:02:10.338Z,85.66
2018-01-25T00:03:10.549Z,85.5
2018-01-25T00:04:10.705Z,85.74
2018-01-25T00:05:10.750Z,85.8
2018-01-25T00:06:09.667Z,85.58
2018-01-25T00:07:10.236Z,85.91
2018-01-25T00:08:11.620Z,86
2018-01-25T00:09:09.581Z,85.86
2018-01-25T00:10:09.623Z,85.77
2018-01-25T00:11:10.323Z,86.23
2018-01-25T00:12:09.544Z,86.39
2018-01-25T00:13:09.546Z,85.91
2018-01-25T00:14:09.554Z,86.26
2018-01-25T00:15:09.951Z,85.99
2018-01-25T00:16:10.262Z,86.21
2018-01-25T00:17:11.575Z,86.33
2018-01-25T00:18:09.625Z,86.17
2018-01-25T00:19:11.937Z,86.09
2018-01-25T00:20:09.852Z,86.03
2018-01-25T00:21:10.442Z,85.95
2018-01-25T00:22:10.221Z,85.95
2018-01-25T00:23:09.675Z,86.13
2018-01-25T00:24:09.946Z,86.07
2018-01-25T00:25:11.672Z,85.97
2018-01-25T00:26:09.575Z,86.33
2018-01-25T00:27:09.868Z,85.98
2018-01-25T00:28:10.382Z,85.84
2018-01-25T00:29:09.686Z,86.46
2018-01-25T00:30:09.705Z,87
2018-01-25T00:31:10.675Z,86.87
2018-01-25T00:32:09.834Z,86.96
2018-01-25T00:33:09.626Z,86.93
2018-01-25T00:34:09.825Z,86.75
2018-01-25T00:35:09.670Z,86.8
2018-01-25T00:36:10.431Z,86.47
2018-01-25T00:37:11.588Z,86.58
2018-01-25T00:38:10.635Z,86.57
2018-01-25T00:39:09.666Z,86.91
2018-01-25T00:40:10.391Z,86.89
2018-01-25T00:41:10.528Z,87.41
2018-01-25T00:42:09.724Z,86.82
2018-01-25T00:43:09.722Z,86.95
2018-01-25T00:44:11.057Z,86.75
2018-01-25T00:45:09.619Z,87.09
2018-01-25T00:46:09.639Z,87.25
2018-01-25T00:47:09.724Z,86.9
2018-01-25T00:48:10.219Z,87.28
2018-01-25T00:49:09.954Z,87.13
2018-01-25T00:52:10.673Z,86.8
2018-01-25T00:53:10.388Z,86.65
2018-01-25T00:54:09.754Z,86.19
2018-01-25T00:55:10.275Z,86.12
2018-01-25T00:58:26.719Z,85.58
2018-01-25T00:59:09.811Z,85.36
2018-01-25T01:00:09.856Z,85.34
2018-01-25T01:01:10.238Z,85.4
2018-01-25T01:02:10.443Z,85.12
2018-01-25T01:03:09.923Z,84.82
2018-01-25T01:04:09.744Z,84.55
2018-01-25T01:05:12.200Z,84.48
2018-01-25T01:06:09.774Z,83.77
2018-01-25T01:07:10.478Z,83.66
2018-01-25T01:08:09.893Z,83.71
2018-01-25T01:09:09.737Z,83.48
2018-01-25T01:10:10.628Z,83.43
2018-01-25T01:11:09.923Z,83.27
2018-01-25T01:12:09.938Z,83.19
2018-01-25T01:13:10.714Z,83.18
2018-01-25T01:14:09.780Z,83.01
2018-01-25T01:15:09.705Z,82.65
2018-01-25T01:16:09.829Z,82.47
2018-01-25T01:17:09.668Z,82.3
2018-01-25T01:18:09.681Z,81.84
2018-01-25T01:19:09.722Z,81.84
2018-01-25T01:20:09.741Z,81.83
2018-01-25T01:21:09.691Z,81.42
2018-01-25T01:22:09.811Z,80.45
2018-01-25T01:23:09.723Z,79.65
2018-01-25T01:24:09.722Z,79.45
2018-01-25T01:25:09.708Z,79.39
2018-01-25T01:26:09.875Z,78.48
2018-01-25T01:27:09.908Z,78.9
2018-01-25T01:28:09.694Z,78.8
2018-01-25T01:29:09.806Z,78.04
2018-01-25T01:30:09.753Z,77.44
2018-01-25T01:31:09.734Z,77.17
2018-01-25T01:32:09.750Z,76.79
2018-01-25T01:33:09.792Z,77.39
2018-01-25T01:34:09.854Z,76.86
2018-01-25T01:35:09.821Z,76.51
2018-01-25T01:36:09.750Z,76.35
2018-01-25T01:37:09.753Z,76.32
2018-01-25T01:38:09.796Z,75.87
2018-01-25T01:39:09.767Z,75.78
2018-01-25T01:40:09.732Z,75.55
2018-01-25T01:41:09.704Z,75.48
2018-01-25T01:42:09.801Z,75.56
2018-01-25T01:43:09.732Z,75.65
2018-01-25T01:44:09.795Z,74.98
2018-01-25T01:45:09.781Z,74.97
2018-01-25T01:46:09.755Z,74.46
2018-01-25T01:47:09.814Z,74.72
2018-01-25T01:48:09.802Z,74.79
2018-01-25T01:49:09.764Z,74.29
2018-01-25T01:50:09.780Z,74.39
2018-01-25T01:51:09.715Z,74.33
2018-01-25T01:52:09.769Z,73.24
2018-01-25T01:53:09.764Z,73.23
2018-01-25T01:54:09.736Z,73.34
2018-01-25T01:55:09.779Z,72.76
2018-01-25T01:56:09.725Z,72.67
2018-01-25T01:57:09.794Z,72.87
2018-01-25T01:58:09.744Z,72.43
2018-01-25T01:59:09.802Z,72.57
2018-01-25T02:00:08.814Z,72.38
2018-01-25T02:01:09.004Z,72.7
2018-01-25T02:02:08.796Z,73.17
2018-01-25T02:03:08.794Z,72.87
2018-01-25T02:04:08.831Z,73.36
2018-01-25T02:05:08.855Z,73.2
2018-01-25T02:06:08.791Z,73.03
2018-01-25T02:07:08.784Z,72.86
2018-01-25T02:08:08.782Z,73.03
2018-01-25T02:09:08.856Z,72.53
2018-01-25T02:10:08.755Z,71.92
2018-01-25T02:11:08.786Z,72.58
2018-01-25T02:12:08.813Z,72.81
2018-01-25T02:13:08.806Z,72.78
2018-01-25T02:14:08.784Z,73.17
2018-01-25T02:15:08.807Z,72.87
2018-01-25T02:16:08.797Z,72.57
2018-01-25T02:17:08.838Z,72.04
2018-01-25T02:18:08.786Z,72.62
2018-01-25T02:19:08.840Z,72.17
2018-01-25T02:20:08.804Z,72.7
2018-01-25T02:21:08.836Z,72.56
2018-01-25T02:22:08.888Z,72.53
2018-01-25T02:23:08.879Z,72.2
2018-01-25T02:24:08.811Z,72.04
2018-01-25T02:25:08.873Z,72.06
2018-01-25T02:26:08.865Z,71.98
2018-01-25T02:27:08.912Z,72.24
2018-01-25T02:28:08.990Z,72.17
2018-01-25T02:29:08.889Z,72.27
2018-01-25T02:30:08.939Z,72.34
2018-01-25T02:31:08.904Z,72.66
2018-01-25T02:32:08.820Z,72.37
2018-01-25T02:33:08.850Z,72.58
2018-01-25T02:34:08.864Z,72.88
2018-01-25T02:35:08.904Z,72.45
2018-01-25T02:36:08.798Z,72.65
2018-01-25T02:37:08.829Z,72.89
2018-01-25T02:39:21.834Z,72.55
2018-01-25T02:40:08.860Z,72.7
2018-01-25T02:41:08.852Z,72.78
2018-01-25T02:42:08.879Z,72.18
2018-01-25T02:43:08.868Z,71.9
2018-01-25T02:44:08.892Z,72.46
2018-01-25T02:45:08.850Z,72.5
2018-01-25T02:46:08.916Z,72.75
2018-01-25T02:47:08.854Z,72.82
2018-01-25T02:48:08.863Z,73.05
2018-01-25T02:49:08.872Z,72.05
2018-01-25T02:50:08.841Z,72.61
2018-01-25T02:51:08.932Z,72.21
2018-01-25T02:52:08.859Z,72.5
2018-01-25T02:53:08.880Z,72.15
2018-01-25T02:54:08.858Z,72.02
2018-01-25T02:55:08.874Z,72.47
2018-01-25T02:56:08.904Z,72.85
2018-01-25T02:57:08.866Z,71.87
2018-01-25T02:58:08.841Z,72.32
2018-01-25T02:59:08.836Z,71.44
2018-01-25T03:00:08.909Z,71.81
2018-01-25T03:01:08.877Z,71.57
2018-01-25T03:02:08.920Z,72
2018-01-25T03:03:09.211Z,72.14
2018-01-25T03:04:08.901Z,71.83
2018-01-25T03:05:08.919Z,71.55
2018-01-25T03:06:08.939Z,71.85
2018-01-25T03:07:08.947Z,71.9
2018-01-25T03:08:08.903Z,71.67
2018-01-25T03:09:08.880Z,71.93
2018-01-25T03:10:08.875Z,71.96
2018-01-25T03:11:08.925Z,71.9
2018-01-25T03:12:08.992Z,71.86
2018-01-25T03:13:08.938Z,71.2
2018-01-25T03:14:08.872Z,71.82
2018-01-25T03:15:08.952Z,72.29
2018-01-25T03:16:08.918Z,72.21
2018-01-25T03:17:08.900Z,72.34
2018-01-25T03:18:08.884Z,72.7
2018-01-25T03:19:08.988Z,72.58
2018-01-25T03:20:08.869Z,72.55
2018-01-25T03:21:08.943Z,72.35
2018-01-25T03:22:08.916Z,72.8
2018-01-25T03:23:08.944Z,72.85
2018-01-25T03:24:08.942Z,72.85
2018-01-25T03:25:08.922Z,73.3
2018-01-25T03:26:08.940Z,73.19
2018-01-25T03:27:08.938Z,73.09
2018-01-25T03:28:08.933Z,73.21
2018-01-25T03:29:08.927Z,72.93
2018-01-25T03:30:09.049Z,72.93
2018-01-25T03:31:08.956Z,72.88
2018-01-25T03:32:08.993Z,73.08
2018-01-25T03:33:09.035Z,72.95
2018-01-25T03:34:09.019Z,72.82
2018-01-25T03:35:09.034Z,72.57
2018-01-25T03:36:09.007Z,72.72
2018-01-25T03:37:09.830Z,72.35
2018-01-25T03:38:08.930Z,72.45
2018-01-25T03:39:08.920Z,72.02
2018-01-25T03:40:08.985Z,72.28
2018-01-25T03:41:08.981Z,72.32
2018-01-25T03:43:11.573Z,72.37
2018-01-25T03:44:08.966Z,72.19
2018-01-25T03:45:09.041Z,72.46
2018-01-25T03:46:08.996Z,71.88
2018-01-25T03:47:09.005Z,72.16
2018-01-25T03:48:08.936Z,72.27
2018-01-25T03:50:09.005Z,72.31
2018-01-25T03:53:24.983Z,72.61
2018-01-25T03:54:08.991Z,72.04
2018-01-25T03:55:09.049Z,71.41
2018-01-25T03:56:08.964Z,71.75
2018-01-25T03:57:09.000Z,72.28
2018-01-25T03:58:08.992Z,72.23
2018-01-25T03:59:09.048Z,71.82
2018-01-25T04:00:09.082Z,72.1
2018-01-25T04:01:09.180Z,71.92
2018-01-25T04:02:08.987Z,72.13
2018-01-25T04:03:09.038Z,71.61
2018-01-25T04:04:09.123Z,71.37
2018-01-25T04:05:09.039Z,70.91
2018-01-25T04:06:09.044Z,71.14
2018-01-25T04:07:09.072Z,71.9
2018-01-25T04:08:09.017Z,71.71
2018-01-25T04:09:09.007Z,72
2018-01-25T04:10:09.022Z,71.43
2018-01-25T04:11:09.029Z,71.83
2018-01-25T04:12:09.073Z,71.87
2018-01-25T04:13:08.992Z,71.2
2018-01-25T04:14:08.999Z,71.63
2018-01-25T04:15:09.051Z,71.54
2018-01-25T04:16:09.059Z,71.63
2018-01-25T04:17:09.122Z,71.74
2018-01-25T04:18:09.075Z,71.55
2018-01-25T04:19:09.000Z,71.79
2018-01-25T04:20:09.016Z,71.69
2018-01-25T04:21:09.060Z,71.9
2018-01-25T04:22:09.257Z,70.7
2018-01-25T04:23:09.014Z,71.12
2018-01-25T04:24:09.059Z,71.1
2018-01-25T04:25:09.028Z,71.18
2018-01-25T04:26:09.047Z,70.96
2018-01-25T04:27:09.041Z,70.61
2018-01-25T04:28:09.067Z,70.69
2018-01-25T04:29:09.032Z,70.94
2018-01-25T04:30:10.104Z,70.67
2018-01-25T04:31:10.152Z,70.66
2018-01-25T04:32:10.148Z,71.09
2018-01-25T04:33:09.097Z,70.8
2018-01-25T04:34:09.029Z,70
2018-01-25T04:35:09.057Z,70.63
2018-01-25T04:36:09.042Z,69.89
2018-01-25T04:37:09.117Z,70
2018-01-25T04:38:09.211Z,69.59
2018-01-25T04:39:09.080Z,69.96
2018-01-25T04:40:09.011Z,69.54
2018-01-25T04:41:09.077Z,68.95
2018-01-25T04:42:09.081Z,68.94
2018-01-25T04:43:09.085Z,69.33
2018-01-25T04:44:09.059Z,69.41
2018-01-25T04:45:09.075Z,69.56
2018-01-25T04:46:09.123Z,69.26
2018-01-25T04:47:09.082Z,69.57
2018-01-25T04:48:09.109Z,69.82
2018-01-25T04:49:09.084Z,69.69
2018-01-25T04:50:09.081Z,69.59
2018-01-25T04:51:09.079Z,69.68
2018-01-25T04:52:09.046Z,69.49
2018-01-25T04:53:09.075Z,69.33
2018-01-25T04:54:09.099Z,68.91
2018-01-25T04:55:09.055Z,69.36
2018-01-25T04:56:09.291Z,69.23
2018-01-25T04:57:09.054Z,69.34
2018-01-25T04:58:09.063Z,69.33
2018-01-25T04:59:09.069Z,69.88
2018-01-25T05:00:09.114Z,69.47
2018-01-25T05:01:09.115Z,69.05
2018-01-25T05:02:09.065Z,69.33
2018-01-25T05:03:09.132Z,69.06
2018-01-25T05:04:09.116Z,69.21
2018-01-25T05:05:09.181Z,69.39
2018-01-25T05:06:09.143Z,69.13
2018-01-25T05:07:09.100Z,69.27
2018-01-25T05:08:09.173Z,69.56
2018-01-25T05:09:09.152Z,68.76
2018-01-25T05:10:09.130Z,69.13
2018-01-25T05:11:09.197Z,68.63
2018-01-25T05:12:09.150Z,69.24
2018-01-25T05:13:09.844Z,69.45
2018-01-25T05:14:09.089Z,68.06
2018-01-25T05:15:09.171Z,68.62
2018-01-25T05:16:09.129Z,68.65
2018-01-25T05:17:09.185Z,68.24
2018-01-25T05:18:09.061Z,68.45
2018-01-25T05:19:09.089Z,68.84
2018-01-25T05:20:09.091Z,69.08
2018-01-25T05:21:09.274Z,69.21
2018-01-25T05:22:09.141Z,68.94
2018-01-25T05:23:09.126Z,69
2018-01-25T05:24:09.066Z,69.52
2018-01-25T05:25:09.136Z,68.77
2018-01-25T05:26:09.089Z,68.58
2018-01-25T05:27:09.121Z,68.94
2018-01-25T05:28:09.128Z,69.25
2018-01-25T05:29:09.137Z,69.16
2018-01-25T05:30:09.128Z,69.32
2018-01-25T05:31:09.142Z,69.36
2018-01-25T05:32:09.176Z,68.96
2018-01-25T05:33:09.259Z,68.6
2018-01-25T05:34:09.234Z,68.35
2018-01-25T05:35:09.182Z,68.54
2018-01-25T05:36:09.249Z,68.05
2018-01-25T05:37:09.266Z,68.72
2018-01-25T05:38:09.131Z,69.22
2018-01-25T05:39:09.220Z,68.77
2018-01-25T05:40:09.162Z,69.17
2018-01-25T05:41:09.137Z,69.35
2018-01-25T05:42:09.197Z,69.17
2018-01-25T05:43:09.115Z,69.27
2018-01-25T05:44:09.157Z,69.13
2018-01-25T05:45:09.170Z,68.72
2018-01-25T05:46:09.190Z,68.93
2018-01-25T05:47:09.142Z,68.94
2018-01-25T05:48:09.139Z,69.54
2018-01-25T05:49:09.171Z,69.63
2018-01-25T05:50:09.178Z,69.64
2018-01-25T05:51:09.136Z,69.9
2018-01-25T05:52:09.155Z,69.2
2018-01-25T05:53:09.105Z,69.36
2018-01-25T05:54:09.185Z,69.57
2018-01-25T05:55:09.112Z,68.75
2018-01-25T05:56:09.122Z,68.67
2018-01-25T05:57:09.123Z,68.84
2018-01-25T05:58:09.125Z,68.66
2018-01-25T05:59:09.191Z,68.87
2018-01-25T06:00:09.188Z,69.1
2018-01-25T06:01:09.123Z,68.24
2018-01-25T06:02:09.127Z,68.87
2018-01-25T06:03:09.222Z,68.84
2018-01-25T06:04:09.142Z,68.15
2018-01-25T06:05:09.232Z,68.04
2018-01-25T06:06:09.191Z,68.44
2018-01-25T06:07:09.148Z,68.74
2018-01-25T06:08:09.202Z,68.3
2018-01-25T06:09:09.197Z,68.46
2018-01-25T06:10:09.239Z,68.13
2018-01-25T06:11:09.240Z,67.85
2018-01-25T06:12:09.220Z,67.81
2018-01-25T06:13:09.198Z,68.29
2018-01-25T06:14:09.303Z,68.03
2018-01-25T06:15:09.288Z,68.64
2018-01-25T06:16:09.244Z,67.96
2018-01-25T06:17:09.262Z,68.14
2018-01-25T06:18:09.539Z,68.24
2018-01-25T06:19:09.293Z,68.27
2018-01-25T06:20:09.234Z,68.72
2018-01-25T06:21:09.212Z,68.77
2018-01-25T06:22:09.219Z,67.94
2018-01-25T06:23:09.851Z,68.4
2018-01-25T06:24:09.169Z,68.43
2018-01-25T06:25:09.269Z,68.47
2018-01-25T06:26:09.213Z,68.77
2018-01-25T06:27:09.179Z,69.33
2018-01-25T06:28:09.155Z,69.19
2018-01-25T06:29:09.139Z,68.93
2018-01-25T06:30:09.204Z,68.44
2018-01-25T06:31:09.165Z,68.16
2018-01-25T06:32:09.179Z,68.52
2018-01-25T06:33:09.570Z,69.17
2018-01-25T06:34:09.261Z,69.04
2018-01-25T06:35:09.198Z,69.51
2018-01-25T06:36:09.266Z,69.15
2018-01-25T06:37:09.168Z,68.99
2018-01-25T06:38:09.314Z,69.16
2018-01-25T06:39:09.219Z,68.59
2018-01-25T06:40:09.219Z,69.21
2018-01-25T06:41:09.213Z,68.47
2018-01-25T06:42:09.194Z,69.16
2018-01-25T06:43:09.270Z,69.03
2018-01-25T06:44:09.238Z,68.79
2018-01-25T06:45:09.206Z,69.27
2018-01-25T06:46:09.212Z,69.3
2018-01-25T06:47:09.195Z,69.67
2018-01-25T06:48:09.199Z,69.75
2018-01-25T06:49:09.253Z,69.58
2018-01-25T06:50:09.215Z,69.38
2018-01-25T06:51:09.197Z,69.67
2018-01-25T06:52:09.240Z,69.28
2018-01-25T06:53:09.218Z,69.43
2018-01-25T06:54:09.241Z,69.28
2018-01-25T06:55:09.199Z,69.31
2018-01-25T06:56:09.223Z,69.57
2018-01-25T06:57:09.216Z,69.55
2018-01-25T06:58:09.227Z,69.15
2018-01-25T06:59:09.239Z,69.66
2018-01-25T07:00:09.188Z,69.56
2018-01-25T07:01:09.393Z,69.58
2018-01-25T07:02:09.196Z,69.8
2018-01-25T07:03:09.351Z,69.9
2018-01-25T07:04:09.268Z,69.98
2018-01-25T07:05:09.298Z,70.16
2018-01-25T07:06:09.372Z,69.69
2018-01-25T07:07:09.311Z,69.87
2018-01-25T07:08:09.272Z,69.86
2018-01-25T07:09:09.278Z,69.91
2018-01-25T07:10:09.262Z,69.91
2018-01-25T07:11:09.383Z,70.21
2018-01-25T07:12:09.401Z,70.22
2018-01-25T07:13:09.271Z,70.17
2018-01-25T07:14:09.288Z,70.48
2018-01-25T07:15:09.271Z,70.51
2018-01-25T07:16:09.337Z,70.49
2018-01-25T07:17:09.274Z,70.16
2018-01-25T07:18:09.334Z,69.49
2018-01-25T07:19:09.300Z,69.97
2018-01-25T07:20:09.318Z,70.12
2018-01-25T07:21:09.248Z,70.32
2018-01-25T07:22:09.370Z,70.42
2018-01-25T07:23:09.287Z,70.47
2018-01-25T07:24:09.242Z,70.6
2018-01-25T07:25:09.320Z,70.97
2018-01-25T07:26:09.360Z,70.45
2018-01-25T07:27:09.269Z,70.75
2018-01-25T07:28:09.302Z,70.8
2018-01-25T07:29:09.356Z,70.91
2018-01-25T07:30:09.376Z,70.92
2018-01-25T07:31:09.261Z,70.72
2018-01-25T07:32:09.297Z,71.12
2018-01-25T07:33:09.391Z,70.68
2018-01-25T07:34:09.346Z,71.03
2018-01-25T07:35:09.825Z,71.02
2018-01-25T07:36:09.351Z,70.49
2018-01-25T07:37:09.343Z,70.94
2018-01-25T07:38:09.365Z,71.12
2018-01-25T07:39:09.333Z,71.16
2018-01-25T07:40:09.499Z,71.43
2018-01-25T07:41:09.323Z,71.47
2018-01-25T07:42:09.342Z,71.59
2018-01-25T07:43:09.411Z,71.53
2018-01-25T07:44:09.339Z,71.7
2018-01-25T07:45:09.539Z,71.83
2018-01-25T07:46:09.359Z,71.84
2018-01-25T07:47:09.352Z,71.58
2018-01-25T07:48:09.344Z,72.27
2018-01-25T07:49:09.337Z,71.97
2018-01-25T07:50:09.400Z,71.95
2018-01-25T07:51:09.484Z,72.25
2018-01-25T07:52:09.344Z,72.4
2018-01-25T07:53:09.339Z,72.47
2018-01-25T07:54:09.359Z,72.27
2018-01-25T07:55:09.406Z,72.87
2018-01-25T07:56:09.432Z,72.74
2018-01-25T07:57:09.395Z,72.38
2018-01-25T07:58:09.339Z,72.48
2018-01-25T07:59:09.380Z,72.68
2018-01-25T08:00:09.323Z,72.38
2018-01-25T08:01:09.380Z,72.65
2018-01-25T08:02:09.326Z,72.65
2018-01-25T08:03:09.653Z,73.11
2018-01-25T08:04:09.582Z,72.8
2018-01-25T08:05:09.589Z,72.63
2018-01-25T08:06:10.427Z,72.97
2018-01-25T08:07:09.641Z,73.27
2018-01-25T08:08:09.636Z,73.08
2018-01-25T08:09:09.632Z,73.28
2018-01-25T08:10:09.611Z,73.13
2018-01-25T08:11:09.623Z,73.3
2018-01-25T08:12:09.647Z,73.53
2018-01-25T08:13:09.785Z,74.45
2018-01-25T08:14:09.593Z,75.26
2018-01-25T08:15:09.597Z,75.1
2018-01-25T08:16:09.585Z,74.26
2018-01-25T08:17:09.597Z,74.55
2018-01-25T08:18:09.667Z,74.28
2018-01-25T08:19:09.619Z,74.01
2018-01-25T08:20:09.593Z,74.03
2018-01-25T08:21:09.730Z,74.07
2018-01-25T08:22:09.667Z,74.31
2018-01-25T08:23:09.734Z,74.52
2018-01-25T08:24:09.738Z,74.2
2018-01-25T08:25:09.703Z,74.3
2018-01-25T08:26:09.703Z,74.4
2018-01-25T08:27:09.635Z,74.48
2018-01-25T08:28:09.716Z,74.68
2018-01-25T08:29:09.648Z,74.98
2018-01-25T08:30:09.636Z,74.76
2018-01-25T08:31:09.644Z,74.65
2018-01-25T08:32:09.619Z,74.54
2018-01-25T08:33:09.694Z,74.47
2018-01-25T08:34:09.603Z,74.7
2018-01-25T08:35:09.597Z,75.07
2018-01-25T08:36:09.792Z,74.61
2018-01-25T08:37:09.637Z,74.38
2018-01-25T08:38:09.661Z,74.25
2018-01-25T08:39:10.350Z,74.34
2018-01-25T08:40:09.656Z,73.97
2018-01-25T08:41:09.667Z,74.09
2018-01-25T08:42:09.655Z,73.85
2018-01-25T08:43:09.847Z,73.83
2018-01-25T08:44:09.768Z,73.53
2018-01-25T08:45:09.658Z,73.31
2018-01-25T08:46:09.728Z,73.12
2018-01-25T08:47:09.692Z,73.25
2018-01-25T08:48:09.772Z,72.76
2018-01-25T08:49:09.665Z,72.69
2018-01-25T08:50:09.659Z,72.33
2018-01-25T08:51:09.617Z,71.67
2018-01-25T08:52:09.683Z,71.79
2018-01-25T08:53:09.691Z,72.36
2018-01-25T08:54:09.698Z,72.39
2018-01-25T08:55:09.634Z,72.27
2018-01-25T08:56:09.655Z,72.62
2018-01-25T08:57:09.594Z,72.63
2018-01-25T08:58:10.261Z,72.59
2018-01-25T08:59:09.705Z,72.31
2018-01-25T09:00:09.660Z,72.19
2018-01-25T09:01:09.634Z,71.44
2018-01-25T09:02:09.606Z,71.92
2018-01-25T09:03:09.746Z,72.1
2018-01-25T09:04:09.733Z,71.71
2018-01-25T09:05:09.761Z,71.26
2018-01-25T09:06:09.705Z,71.94
2018-01-25T09:07:09.668Z,71.58
2018-01-25T09:08:09.763Z,71.47
2018-01-25T09:09:09.828Z,71.99
2018-01-25T09:10:09.810Z,70.94
2018-01-25T09:11:09.692Z,71.32
2018-01-25T09:12:09.668Z,71.14
2018-01-25T09:13:09.741Z,71.71
2018-01-25T09:14:09.707Z,71.05
2018-01-25T09:15:09.758Z,71.62
2018-01-25T09:16:09.681Z,71.4
2018-01-25T09:17:09.760Z,71.53
2018-01-25T09:18:09.688Z,71.48
2018-01-25T09:19:09.728Z,71.21
2018-01-25T09:20:09.743Z,71.31
2018-01-25T09:21:09.764Z,71.78
2018-01-25T09:22:10.031Z,71.81
2018-01-25T09:23:09.707Z,71.54
2018-01-25T09:24:09.738Z,70.58
2018-01-25T09:25:09.844Z,70.7
2018-01-25T09:26:09.773Z,70.66
2018-01-25T09:27:09.853Z,70.97
2018-01-25T09:28:09.805Z,70.77
2018-01-25T09:29:09.732Z,71.05
2018-01-25T09:30:09.683Z,71.29
2018-01-25T09:31:09.687Z,70.4
2018-01-25T09:32:09.771Z,70.29
2018-01-25T09:33:09.826Z,70.07
2018-01-25T09:34:08.786Z,70.27
2018-01-25T09:35:08.768Z,70.35
2018-01-25T09:36:08.804Z,69.74
2018-01-25T09:37:08.769Z,70.01
2018-01-25T09:38:08.909Z,70.21
2018-01-25T09:39:08.860Z,69.76
2018-01-25T09:40:08.867Z,69.43
2018-01-25T09:41:08.874Z,69.73
2018-01-25T09:42:08.803Z,69.73
2018-01-25T09:43:08.751Z,70.3
2018-01-25T09:44:08.804Z,70.41
2018-01-25T09:45:08.811Z,69.56
2018-01-25T09:46:08.823Z,69.95
2018-01-25T09:47:08.954Z,70.13
2018-01-25T09:48:08.835Z,69.82
2018-01-25T09:49:08.840Z,69.66
2018-01-25T09:50:08.808Z,70.1
2018-01-25T09:51:08.864Z,70.32
2018-01-25T09:52:08.865Z,69.98
2018-01-25T09:53:08.857Z,70.01
2018-01-25T09:54:08.793Z,70.26
2018-01-25T09:55:08.793Z,70.13
2018-01-25T09:56:08.827Z,70.19
2018-01-25T09:57:08.810Z,69.83
2018-01-25T09:58:08.776Z,69.87
2018-01-25T09:59:08.808Z,70.15
2018-01-25T10:00:08.832Z,69.87
2018-01-25T10:01:08.817Z,70.26
2018-01-25T10:02:08.714Z,69.51
2018-01-25T10:03:08.888Z,69.72
2018-01-25T10:04:08.878Z,69.68
2018-01-25T10:05:08.921Z,69.62
2018-01-25T10:06:08.788Z,70.13
2018-01-25T10:07:08.859Z,70.06
2018-01-25T10:08:08.866Z,70.15
2018-01-25T10:09:08.875Z,70.34
2018-01-25T10:10:08.865Z,69.62
2018-01-25T10:11:08.877Z,69.69
2018-01-25T10:12:08.968Z,70.05
2018-01-25T10:13:08.884Z,69.62
2018-01-25T10:14:08.841Z,69.75
2018-01-25T10:15:08.804Z,70.1
2018-01-25T10:16:08.821Z,70.47
2018-01-25T10:17:08.905Z,70.72
2018-01-25T10:18:08.878Z,70.78
2018-01-25T10:19:08.896Z,71.34
2018-01-25T10:20:08.885Z,71.04
2018-01-25T10:21:08.953Z,71.15
2018-01-25T10:22:08.900Z,71.1
2018-01-25T10:23:08.916Z,71.35
2018-01-25T10:24:08.918Z,71.52
2018-01-25T10:25:08.943Z,72.07
2018-01-25T10:26:08.904Z,72.02
2018-01-25T10:27:08.810Z,72.23
2018-01-25T10:28:08.842Z,72.42
2018-01-25T10:29:08.874Z,72.78
2018-01-25T10:30:08.798Z,73.02
2018-01-25T10:31:08.901Z,73.08
2018-01-25T10:32:08.868Z,73.29
2018-01-25T10:33:08.835Z,73.34
2018-01-25T10:34:08.945Z,73.64
2018-01-25T10:35:09.028Z,73.6
2018-01-25T10:36:08.939Z,73.83
2018-01-25T10:37:08.935Z,73.79
2018-01-25T10:38:08.944Z,73.99
2018-01-25T10:39:08.907Z,73.48
2018-01-25T10:40:08.929Z,73.75
2018-01-25T10:41:08.985Z,73.79
2018-01-25T10:42:08.990Z,73.64
2018-01-25T10:43:09.083Z,73.93
2018-01-25T10:44:08.988Z,73.87
2018-01-25T10:45:09.490Z,73.49
2018-01-25T10:46:09.117Z,73.64
2018-01-25T10:47:09.043Z,73.75
2018-01-25T10:48:09.021Z,73.87
2018-01-25T10:49:08.916Z,73.75
2018-01-25T10:50:08.958Z,74.08
2018-01-25T10:51:08.945Z,74.42
2018-01-25T10:52:08.914Z,74.76
2018-01-25T10:53:08.913Z,74.18
2018-01-25T10:54:08.951Z,74.43
2018-01-25T10:55:09.761Z,73.74
2018-01-25T10:56:09.609Z,74.15
2018-01-25T10:57:08.959Z,74.26
2018-01-25T10:58:09.550Z,74.22
2018-01-25T10:59:09.638Z,74.11
2018-01-25T11:00:11.837Z,74.11
2018-01-25T11:01:09.598Z,73.78
2018-01-25T11:02:08.996Z,73.79
2018-01-25T11:03:08.924Z,73.98
2018-01-25T11:04:09.984Z,73.55
2018-01-25T11:05:09.813Z,73.83
2018-01-25T11:06:09.830Z,74.06
2018-01-25T11:07:09.794Z,74.16
2018-01-25T11:08:09.794Z,73.83
2018-01-25T11:09:09.248Z,74
2018-01-25T11:10:09.205Z,74.2
2018-01-25T11:11:09.329Z,74.12
2018-01-25T11:12:09.232Z,74.11
2018-01-25T11:13:09.213Z,74.23
2018-01-25T11:14:09.321Z,74.26
2018-01-25T11:15:09.565Z,74.19
2018-01-25T11:16:10.035Z,74.14
2018-01-25T11:17:09.840Z,73.99
2018-01-25T11:18:10.045Z,73.99
2018-01-25T11:19:09.285Z,74.05
2018-01-25T11:20:10.074Z,73.91
2018-01-25T11:21:10.108Z,73.79
2018-01-25T11:22:09.289Z,73.86
2018-01-25T11:23:10.366Z,73.69
2018-01-25T11:24:09.173Z,73.86
2018-01-25T11:25:09.240Z,73.77
2018-01-25T11:26:10.134Z,73.39
2018-01-25T11:27:09.237Z,73.57
2018-01-25T11:28:09.203Z,73.13
2018-01-25T11:29:09.826Z,73.18
2018-01-25T11:30:09.264Z,73.18
2018-01-25T11:31:09.368Z,72.44
2018-01-25T11:32:10.717Z,72.43
2018-01-25T11:33:09.305Z,72.55
2018-01-25T11:34:09.438Z,72.96
2018-01-25T11:35:09.243Z,72.65
2018-01-25T11:36:09.302Z,72.45
2018-01-25T11:37:09.254Z,72.38
2018-01-25T11:38:09.299Z,72.47
2018-01-25T11:39:09.262Z,71.71
2018-01-25T11:40:09.249Z,71.99
2018-01-25T11:41:09.392Z,71.92
2018-01-25T11:42:09.305Z,71.71
2018-01-25T11:43:09.296Z,71.57
2018-01-25T11:44:09.249Z,71.24
2018-01-25T11:45:09.275Z,71.53
2018-01-25T11:46:09.327Z,70.78
2018-01-25T11:47:09.219Z,71.41
2018-01-25T11:48:09.346Z,70.31
2018-01-25T11:49:09.314Z,69.8
2018-01-25T11:50:09.240Z,69.99
2018-01-25T11:51:09.296Z,69.67
2018-01-25T11:52:09.316Z,69.39
2018-01-25T11:53:09.321Z,69.32
2018-01-25T11:54:09.230Z,69.65
2018-01-25T11:55:09.252Z,69.53
2018-01-25T11:56:09.270Z,69.64
2018-01-25T11:57:09.248Z,69.55
2018-01-25T11:58:09.328Z,70.05
2018-01-25T11:59:09.251Z,70.03
2018-01-25T12:00:09.220Z,70.2
2018-01-25T12:01:09.226Z,69.67
2018-01-25T12:02:09.287Z,70.01
2018-01-25T12:03:09.363Z,70.06
2018-01-25T12:04:09.555Z,69.27
2018-01-25T12:05:09.500Z,69.54
2018-01-25T12:06:09.558Z,69.71
2018-01-25T12:07:09.544Z,69.61
2018-01-25T12:08:09.575Z,69.63
2018-01-25T12:09:09.554Z,70.4
2018-01-25T12:10:09.509Z,70.14
2018-01-25T12:11:09.565Z,69.89
2018-01-25T12:12:09.522Z,69.52
2018-01-25T12:13:09.535Z,69.87
2018-01-25T12:14:09.636Z,69.9
2018-01-25T12:15:09.522Z,70.4
2018-01-25T12:16:09.566Z,69.67
2018-01-25T12:17:09.548Z,69.74
2018-01-25T12:18:09.542Z,69.71
2018-01-25T12:19:09.492Z,69.37
2018-01-25T12:20:09.567Z,69.63
2018-01-25T12:21:09.601Z,68.23
2018-01-25T12:22:09.522Z,68.75
2018-01-25T12:23:09.548Z,68.48
2018-01-25T12:24:09.556Z,68.53
2018-01-25T12:25:09.558Z,68.04
2018-01-25T12:26:09.590Z,68.4
2018-01-25T12:27:09.577Z,68
2018-01-25T12:28:09.530Z,68.04
2018-01-25T12:29:09.519Z,68.81
2018-01-25T12:30:09.543Z,69.37
2018-01-25T12:31:09.726Z,68.65
2018-01-25T12:32:09.597Z,68.56
2018-01-25T12:33:09.598Z,68
2018-01-25T12:34:10.633Z,68.59
2018-01-25T12:35:08.821Z,68.95
2018-01-25T12:36:08.795Z,68.53
2018-01-25T12:37:08.777Z,67.79
2018-01-25T12:38:08.768Z,68.59
2018-01-25T12:39:08.760Z,68.04
2018-01-25T12:40:08.796Z,67.75
2018-01-25T12:41:08.811Z,68.64
2018-01-25T12:42:08.755Z,68.92
2018-01-25T12:43:08.788Z,68.14
2018-01-25T12:44:08.835Z,67.62
2018-01-25T12:45:08.841Z,67.92
2018-01-25T12:46:08.821Z,68.07
2018-01-25T12:47:08.804Z,68.27
2018-01-25T12:48:08.805Z,68.93
2018-01-25T12:49:08.842Z,68.92
2018-01-25T12:50:08.774Z,68.92
2018-01-25T12:51:08.782Z,69.22
2018-01-25T12:52:08.835Z,68.76
2018-01-25T12:53:08.802Z,69.47
2018-01-25T12:54:08.850Z,69.38
2018-01-25T12:55:08.856Z,68.93
2018-01-25T12:56:08.869Z,69.04
2018-01-25T12:57:08.783Z,68.76
2018-01-25T12:58:08.789Z,68.76
2018-01-25T12:59:08.846Z,68.95
2018-01-25T13:00:08.891Z,67.98
2018-01-25T13:01:08.805Z,67.82
2018-01-25T13:02:08.821Z,67.57
2018-01-25T13:03:08.758Z,67.88
2018-01-25T13:04:08.791Z,67.48